Time;durP1;ratioP1;P1;durP2;ratioP2;P2;SDS_P1;SDS_P2;PMS_P1;PMS_P2;Temp;Humidity;BMP_temperature;BMP_pressure;BME280_temperature;BME280_humidity;BME280_pressure;Samples;Min_cycle;Max_cycle;Signal;HPM_P1;HPM_P2
2022/10/02 00:02:22;;;;;;;11.80;3.33;;;13.30;99.90;;;;;;5029134;28;20417;-37
2022/10/02 00:05:27;;;;;;;12.10;3.43;;;13.30;99.90;;;;;;5029059;28;20789;-38
2022/10/02 00:07:53;;;;;;;11.17;3.57;;;13.30;99.90;;;;;;5032076;28;20412;-37
2022/10/02 00:10:28;;;;;;;14.43;4.50;;;13.30;99.90;;;;;;5049346;28;20419;-37
2022/10/02 00:12:59;;;;;;;11.97;4.03;;;13.30;99.90;;;;;;5021434;28;20229;-37
2022/10/02 00:15:28;;;;;;;13.17;3.50;;;13.40;99.90;;;;;;5029484;28;20436;-37
2022/10/02 00:17:58;;;;;;;17.03;3.60;;;13.40;99.90;;;;;;5027764;28;20436;-37
2022/10/02 00:20:33;;;;;;;10.87;3.87;;;13.40;99.90;;;;;;5038166;28;20423;-37
2022/10/02 00:23:15;;;;;;;11.80;3.20;;;13.40;99.90;;;;;;5031885;28;20420;-38
2022/10/02 00:25:56;;;;;;;7.53;3.20;;;13.40;99.90;;;;;;5029320;28;20428;-37
2022/10/02 00:28:51;;;;;;;13.37;3.57;;;13.50;99.90;;;;;;5029349;28;20831;-37
2022/10/02 00:32:09;;;;;;;12.97;3.93;;;13.50;99.90;;;;;;5017944;28;20459;-37
2022/10/02 00:34:50;;;;;;;10.50;3.03;;;13.40;99.90;;;;;;5021910;28;20443;-37
2022/10/02 00:37:41;;;;;;;11.93;2.87;;;13.40;99.90;;;;;;5027772;28;20405;-37
2022/10/02 00:40:35;;;;;;;11.33;3.23;;;13.40;99.90;;;;;;5032741;28;20915;-37
2022/10/02 00:43:28;;;;;;;12.23;3.80;;;13.40;99.90;;;;;;5031797;28;20417;-37
2022/10/02 00:46:20;;;;;;;10.20;3.60;;;13.40;99.90;;;;;;5032588;28;20441;-37
2022/10/02 00:49:03;;;;;;;17.07;4.27;;;13.40;99.90;;;;;;5032610;28;20417;-37
2022/10/02 00:51:46;;;;;;;11.90;4.23;;;13.30;99.90;;;;;;5032545;28;20456;-37
2022/10/02 00:55:00;;;;;;;9.40;4.30;;;13.30;99.90;;;;;;5030209;28;20425;-38
2022/10/02 00:57:49;;;;;;;12.47;3.43;;;13.40;99.90;;;;;;5032013;28;20443;-37
2022/10/02 01:00:17;;;;;;;10.93;3.87;;;13.40;99.90;;;;;;5032442;28;21212;-37
2022/10/02 01:03:09;;;;;;;15.43;4.20;;;13.50;99.90;;;;;;5031669;28;20417;-37
2022/10/02 01:05:35;;;;;;;14.63;4.10;;;13.40;99.90;;;;;;5031878;28;20441;-37
2022/10/02 01:08:01;;;;;;;14.80;4.57;;;13.50;99.90;;;;;;5032009;28;20483;-37
2022/10/02 01:10:28;;;;;;;10.30;3.13;;;13.50;99.90;;;;;;5032057;28;20920;-37
2022/10/02 01:12:55;;;;;;;14.47;3.93;;;13.50;99.90;;;;;;5031206;28;20492;-38
2022/10/02 01:15:27;;;;;;;21.87;6.60;;;13.50;99.90;;;;;;5032159;28;20512;-38
2022/10/02 01:17:54;;;;;;;16.53;5.50;;;13.50;99.90;;;;;;5032002;28;20852;-37
2022/10/02 01:20:36;;;;;;;17.17;4.30;;;13.50;99.90;;;;;;5039730;28;20425;-38
2022/10/02 01:23:14;;;;;;;11.70;3.77;;;13.50;99.90;;;;;;5033519;28;20421;-37
2022/10/02 01:25:39;;;;;;;11.50;3.80;;;13.50;99.90;;;;;;5032053;28;20421;-37
2022/10/02 01:28:05;;;;;;;13.33;4.30;;;13.50;99.90;;;;;;5031853;28;20429;-37
2022/10/02 01:30:34;;;;;;;15.50;4.57;;;13.50;99.90;;;;;;5031598;28;20286;-37
2022/10/02 01:33:02;;;;;;;16.77;3.60;;;13.60;99.90;;;;;;5030992;28;20523;-37
2022/10/02 01:35:32;;;;;;;13.23;4.97;;;13.60;99.90;;;;;;5031763;28;20425;-38
2022/10/02 01:38:02;;;;;;;16.03;4.13;;;13.60;99.90;;;;;;5031721;28;20504;-38
2022/10/02 01:40:33;;;;;;;19.53;5.00;;;13.70;99.90;;;;;;5031652;28;20410;-37
2022/10/02 01:43:09;;;;;;;15.13;3.33;;;13.70;99.90;;;;;;5030875;28;20757;-37
2022/10/02 01:46:00;;;;;;;13.67;3.60;;;13.70;99.90;;;;;;5031613;28;20791;-37
2022/10/02 01:48:28;;;;;;;12.30;4.50;;;13.70;99.90;;;;;;5031275;28;20870;-38
2022/10/02 01:51:31;;;;;;;14.80;4.50;;;13.70;99.90;;;;;;5031261;28;20423;-37
2022/10/02 01:54:26;;;;;;;16.40;4.43;;;13.70;99.90;;;;;;5029305;28;20571;-37
2022/10/02 01:57:17;;;;;;;13.73;3.60;;;13.70;99.90;;;;;;5031260;28;20883;-37
2022/10/02 02:00:08;;;;;;;17.80;4.83;;;13.70;99.90;;;;;;5031097;28;20413;-37
2022/10/02 02:02:56;;;;;;;15.10;3.47;;;13.80;99.90;;;;;;5031043;28;20945;-38
2022/10/02 02:05:37;;;;;;;19.17;4.83;;;13.80;99.90;;;;;;5030830;28;20456;-37
2022/10/02 02:08:27;;;;;;;18.73;4.73;;;13.80;99.90;;;;;;5030859;28;20425;-37
2022/10/02 02:11:07;;;;;;;11.53;4.07;;;13.80;99.90;;;;;;5030928;28;20417;-37
2022/10/02 02:13:52;;;;;;;16.90;3.37;;;13.90;99.90;;;;;;5030245;28;20483;-37
2022/10/02 02:16:25;;;;;;;16.17;4.00;;;13.80;99.90;;;;;;5030856;28;20431;-38
2022/10/02 02:18:57;;;;;;;12.07;3.97;;;13.90;99.90;;;;;;5029679;28;20471;-38
2022/10/02 02:21:33;;;;;;;16.80;6.00;;;13.80;99.90;;;;;;5043252;28;20451;-38
2022/10/02 02:24:03;;;;;;;15.57;5.03;;;13.90;99.90;;;;;;5030217;28;20926;-37
2022/10/02 02:26:29;;;;;;;15.97;5.07;;;13.90;99.90;;;;;;5030642;28;20418;-37
2022/10/02 02:29:01;;;;;;;18.13;4.57;;;14.00;99.90;;;;;;5030592;28;20431;-38
2022/10/02 02:31:33;;;;;;;11.87;4.27;;;14.00;99.90;;;;;;5030601;28;21027;-37
2022/10/02 02:34:05;;;;;;;17.10;5.07;;;13.90;99.90;;;;;;5029957;28;20457;-37
2022/10/02 02:36:42;;;;;;;16.00;4.83;;;13.90;99.90;;;;;;5030634;28;20440;-38
2022/10/02 02:39:13;;;;;;;14.20;4.70;;;13.90;99.90;;;;;;5030517;28;20429;-37
2022/10/02 02:41:48;;;;;;;14.13;4.50;;;13.90;99.90;;;;;;5030253;28;20425;-37
2022/10/02 02:44:45;;;;;;;13.90;3.87;;;14.00;99.90;;;;;;5029938;28;20451;-37
2022/10/02 02:47:21;;;;;;;12.53;5.63;;;13.90;99.90;;;;;;5029916;28;20425;-37
2022/10/02 02:49:58;;;;;;;15.90;4.60;;;13.90;99.90;;;;;;5030128;28;20904;-37
2022/10/02 02:52:29;;;;;;;13.97;4.20;;;14.00;99.90;;;;;;5029951;28;20460;-37
2022/10/02 02:55:02;;;;;;;14.23;4.77;;;13.90;99.90;;;;;;5028597;28;20413;-37
2022/10/02 02:57:38;;;;;;;15.77;4.60;;;13.90;99.90;;;;;;5009154;28;20426;-38
2022/10/02 03:00:06;;;;;;;19.60;5.13;;;13.90;99.90;;;;;;5025360;28;20915;-38
2022/10/02 03:02:32;;;;;;;13.83;5.40;;;13.90;99.90;;;;;;5029585;28;20429;-37
2022/10/02 03:04:58;;;;;;;12.80;4.80;;;13.90;99.90;;;;;;5029584;28;20445;-38
2022/10/02 03:07:24;;;;;;;16.97;4.90;;;13.90;99.90;;;;;;5029999;28;20432;-37
2022/10/02 03:10:38;;;;;;;18.50;5.43;;;13.90;99.90;;;;;;5030040;28;20195;-37
2022/10/02 03:13:26;;;;;;;15.57;5.37;;;14.00;99.90;;;;;;5028715;28;20210;-37
2022/10/02 03:16:14;;;;;;;12.20;4.87;;;13.90;99.90;;;;;;5030098;28;20456;-37
2022/10/02 03:18:46;;;;;;;12.40;4.90;;;13.90;99.90;;;;;;5030056;28;20413;-37
2022/10/02 03:21:13;;;;;;;15.53;5.90;;;14.00;99.90;;;;;;5042590;28;20455;-37
2022/10/02 03:23:49;;;;;;;17.00;5.50;;;14.00;99.90;;;;;;5029231;28;20417;-37
2022/10/02 03:26:20;;;;;;;17.27;4.90;;;14.00;99.90;;;;;;5029826;28;20476;-37
2022/10/02 03:28:56;;;;;;;15.30;4.70;;;14.00;99.90;;;;;;5029912;28;20492;-38
2022/10/02 03:31:25;;;;;;;15.63;5.07;;;14.00;99.90;;;;;;5029647;28;20429;-37
2022/10/02 03:33:52;;;;;;;15.90;4.40;;;14.00;99.90;;;;;;5028903;28;20471;-37
2022/10/02 03:36:19;;;;;;;16.40;4.90;;;13.90;99.90;;;;;;5029824;28;20428;-37
2022/10/02 03:38:46;;;;;;;16.27;5.00;;;13.90;99.90;;;;;;5029679;28;20425;-37
2022/10/02 03:41:13;;;;;;;17.23;5.87;;;14.00;99.90;;;;;;5029705;28;20425;-37
2022/10/02 03:43:39;;;;;;;15.37;4.27;;;14.00;99.90;;;;;;5028980;28;20432;-37
2022/10/02 03:46:05;;;;;;;17.10;5.00;;;14.00;99.90;;;;;;5029527;28;20429;-37
2022/10/02 03:48:30;;;;;;;16.80;5.87;;;14.00;99.90;;;;;;5029635;28;20433;-37
2022/10/02 03:50:57;;;;;;;19.13;4.60;;;14.00;99.90;;;;;;5029624;28;20946;-37
2022/10/02 03:53:29;;;;;;;12.17;4.53;;;14.10;99.90;;;;;;5028802;28;20211;-37
2022/10/02 03:56:03;;;;;;;18.07;6.07;;;14.10;99.90;;;;;;5028173;28;20794;-37
2022/10/02 03:58:29;;;;;;;17.40;4.30;;;14.00;99.90;;;;;;5029238;28;20763;-37
2022/10/02 04:01:02;;;;;;;17.50;5.40;;;14.00;99.90;;;;;;5029614;28;20421;-38
2022/10/02 04:03:35;;;;;;;16.30;5.43;;;14.10;99.90;;;;;;5028916;28;20681;-37
2022/10/02 04:06:24;;;;;;;24.33;5.57;;;14.10;99.90;;;;;;5029414;28;20952;-37
2022/10/02 04:09:10;;;;;;;18.17;4.70;;;14.10;99.90;;;;;;5029378;28;20441;-37
2022/10/02 04:11:48;;;;;;;20.13;6.40;;;14.10;99.90;;;;;;5030015;28;20483;-38
2022/10/02 04:14:56;;;;;;;19.40;6.20;;;14.10;99.90;;;;;;5032411;28;20495;-37
2022/10/02 04:17:29;;;;;;;23.37;5.87;;;14.00;99.90;;;;;;5045528;28;21146;-37
2022/10/02 04:20:04;;;;;;;16.53;5.07;;;14.10;99.90;;;;;;5032294;28;20952;-37
2022/10/02 04:22:42;;;;;;;19.50;4.03;;;14.10;99.90;;;;;;5031831;28;20444;-37
2022/10/02 04:25:20;;;;;;;20.13;5.13;;;14.10;99.90;;;;;;5032964;28;20432;-38
2022/10/02 04:27:57;;;;;;;16.43;4.47;;;14.00;99.90;;;;;;5032839;28;20466;-38
2022/10/02 04:30:23;;;;;;;13.17;4.53;;;14.00;99.90;;;;;;5032994;28;20420;-38
2022/10/02 04:32:50;;;;;;;16.17;5.27;;;14.10;99.90;;;;;;5032264;28;20552;-37
2022/10/02 04:35:24;;;;;;;15.23;4.17;;;14.10;99.90;;;;;;5032818;28;20266;-37
2022/10/02 04:38:08;;;;;;;14.77;4.03;;;14.20;99.90;;;;;;5032938;28;20543;-37
2022/10/02 04:41:04;;;;;;;12.37;4.03;;;14.20;99.90;;;;;;5032543;28;20413;-38
2022/10/02 04:43:56;;;;;;;11.03;3.73;;;14.20;99.90;;;;;;5031874;28;20429;-38
2022/10/02 04:46:49;;;;;;;15.30;3.83;;;14.20;99.90;;;;;;5032481;28;20425;-37
2022/10/02 04:49:36;;;;;;;11.73;3.83;;;14.20;99.90;;;;;;5032526;28;20418;-37
2022/10/02 04:52:22;;;;;;;11.77;3.40;;;14.20;99.90;;;;;;5032559;28;20425;-37
2022/10/02 04:55:07;;;;;;;14.13;4.43;;;14.20;99.90;;;;;;5029991;28;20452;-38
2022/10/02 04:58:03;;;;;;;9.00;2.20;;;14.10;99.90;;;;;;5032581;28;21041;-38
2022/10/02 05:00:50;;;;;;;10.60;3.60;;;14.10;99.90;;;;;;5032243;28;20409;-38
2022/10/02 05:03:32;;;;;;;8.50;2.90;;;14.10;99.90;;;;;;5031589;28;20415;-37
2022/10/02 05:05:57;;;;;;;10.87;4.20;;;14.10;99.90;;;;;;5032154;28;20441;-37
2022/10/02 05:08:56;;;;;;;12.77;3.50;;;14.10;99.90;;;;;;5032402;28;21375;-37
2022/10/02 05:11:43;;;;;;;8.30;2.67;;;14.00;99.90;;;;;;5031797;28;20179;-38
2022/10/02 05:14:22;;;;;;;4.80;2.87;;;14.10;99.90;;;;;;5030320;28;20491;-38
2022/10/02 05:16:57;;;;;;;7.80;3.10;;;14.00;99.90;;;;;;5031999;28;20410;-38
2022/10/02 05:19:56;;;;;;;7.63;3.00;;;14.10;99.90;;;;;;5031074;28;20429;-37
2022/10/02 05:22:27;;;;;;;12.90;3.10;;;14.10;99.90;;;;;;5039718;28;20428;-37
2022/10/02 05:24:59;;;;;;;6.57;2.70;;;14.10;99.90;;;;;;5030870;28;20459;-37
2022/10/02 05:27:48;;;;;;;11.27;2.57;;;14.10;99.90;;;;;;5031711;28;20504;-37
2022/10/02 05:30:16;;;;;;;7.03;3.10;;;14.10;99.90;;;;;;5031694;28;20418;-37
2022/10/02 05:33:15;;;;;;;8.00;2.53;;;14.00;99.90;;;;;;5030883;28;20472;-37
2022/10/02 05:35:49;;;;;;;6.33;2.70;;;14.00;99.90;;;;;;5031709;28;20915;-38
2022/10/02 05:38:30;;;;;;;8.07;2.93;;;13.90;99.90;;;;;;5031625;28;20486;-38
2022/10/02 05:41:22;;;;;;;4.40;2.10;;;14.00;99.90;;;;;;5031760;28;20778;-38
2022/10/02 05:43:51;;;;;;;5.50;2.67;;;14.00;99.90;;;;;;5031071;28;20471;-37
2022/10/02 05:46:25;;;;;;;5.27;2.40;;;14.00;99.90;;;;;;5031483;28;20429;-37
2022/10/02 05:48:57;;;;;;;6.17;2.10;;;14.00;99.90;;;;;;5031353;28;20432;-37
2022/10/02 05:51:54;;;;;;;7.50;2.20;;;13.90;99.90;;;;;;5031434;28;20428;-37
2022/10/02 05:54:36;;;;;;;6.53;2.60;;;13.90;99.90;;;;;;5028240;28;20508;-37
2022/10/02 05:57:36;;;;;;;3.73;2.03;;;14.00;99.90;;;;;;5031292;28;20417;-37
2022/10/02 06:00:28;;;;;;;8.17;2.30;;;14.00;99.90;;;;;;5031220;28;21092;-37
2022/10/02 06:03:00;;;;;;;10.23;2.73;;;13.90;99.90;;;;;;5017101;28;20521;-38
2022/10/02 06:05:54;;;;;;;4.93;2.13;;;14.00;99.90;;;;;;5029894;28;20534;-37
2022/10/02 06:08:31;;;;;;;3.73;2.43;;;14.00;99.90;;;;;;5031043;28;20424;-38
2022/10/02 06:11:04;;;;;;;4.77;2.33;;;14.00;99.90;;;;;;5031171;28;20462;-37
2022/10/02 06:14:04;;;;;;;5.10;1.90;;;14.00;99.90;;;;;;5028788;28;20449;-38
2022/10/02 06:16:36;;;;;;;6.50;2.50;;;14.00;99.90;;;;;;5031008;28;20441;-38
2022/10/02 06:19:09;;;;;;;3.73;2.00;;;14.00;99.90;;;;;;5030964;28;20413;-37
2022/10/02 06:21:42;;;;;;;6.50;2.67;;;14.00;99.90;;;;;;5044100;28;20864;-38
2022/10/02 06:24:22;;;;;;;6.00;2.80;;;14.00;99.90;;;;;;5030125;28;20811;-37
2022/10/02 06:26:59;;;;;;;6.30;2.70;;;13.90;99.90;;;;;;5030598;28;20427;-37
2022/10/02 06:29:56;;;;;;;8.37;3.33;;;13.90;99.90;;;;;;5030602;28;20459;-38
2022/10/02 06:32:38;;;;;;;7.97;3.30;;;13.90;99.90;;;;;;5030325;28;20445;-38
2022/10/02 06:35:12;;;;;;;5.93;2.70;;;13.90;99.90;;;;;;5029665;28;20458;-38
2022/10/02 06:37:50;;;;;;;5.83;2.60;;;13.90;99.90;;;;;;5030529;28;20409;-37
2022/10/02 06:40:35;;;;;;;6.93;3.03;;;14.00;99.90;;;;;;5030720;28;20500;-37
2022/10/02 06:43:07;;;;;;;7.70;3.80;;;13.90;99.90;;;;;;5029707;28;20532;-38
2022/10/02 06:45:51;;;;;;;8.20;3.33;;;13.90;99.90;;;;;;5030554;28;20423;-37
2022/10/02 06:48:23;;;;;;;9.20;3.80;;;13.90;99.90;;;;;;5030363;28;20412;-38
2022/10/02 06:50:57;;;;;;;9.83;3.77;;;14.00;99.90;;;;;;5030356;28;20412;-38
2022/10/02 06:53:51;;;;;;;10.37;4.50;;;14.10;99.90;;;;;;5029534;28;20471;-38
2022/10/02 06:56:29;;;;;;;6.00;3.47;;;14.00;99.90;;;;;;5028811;28;20420;-37
2022/10/02 06:59:19;;;;;;;10.87;4.00;;;14.10;99.90;;;;;;5030116;28;20417;-37
2022/10/02 07:01:57;;;;;;;10.77;4.57;;;14.10;99.90;;;;;;5030017;28;20436;-37
2022/10/02 07:04:57;;;;;;;9.07;4.83;;;14.20;99.90;;;;;;5028267;28;20956;-37
2022/10/02 07:07:56;;;;;;;8.87;4.73;;;14.20;99.90;;;;;;5019684;28;20413;-37
2022/10/02 07:10:31;;;;;;;8.23;4.80;;;14.20;99.90;;;;;;5029807;28;20424;-37
2022/10/02 07:12:57;;;;;;;15.03;7.20;;;14.20;99.90;;;;;;5029181;28;20522;-38
2022/10/02 07:15:25;;;;;;;9.37;6.33;;;14.20;99.90;;;;;;5030015;28;20417;-38
2022/10/02 07:18:36;;;;;;;11.63;6.90;;;14.20;99.90;;;;;;5029887;28;20530;-37
2022/10/02 07:21:35;;;;;;;11.37;6.00;;;14.20;99.90;;;;;;5042939;28;21343;-37
2022/10/02 07:24:30;;;;;;;10.77;6.60;;;14.30;99.90;;;;;;5029256;28;21001;-37
2022/10/02 07:27:10;;;;;;;12.43;7.03;;;14.30;99.90;;;;;;5029639;28;20424;-37
2022/10/02 07:30:07;;;;;;;14.80;7.90;;;14.30;99.90;;;;;;5029784;28;20417;-37
2022/10/02 07:32:47;;;;;;;14.10;7.20;;;14.40;99.90;;;;;;5029540;28;20548;-37
2022/10/02 07:35:40;;;;;;;7.80;5.77;;;14.40;99.90;;;;;;5029451;28;20443;-37
2022/10/02 07:38:43;;;;;;;9.77;6.20;;;14.40;99.90;;;;;;5029952;28;20969;-37
2022/10/02 07:41:21;;;;;;;15.43;6.60;;;14.50;99.90;;;;;;5028369;28;20495;-37
2022/10/02 07:43:46;;;;;;;7.50;5.67;;;14.50;99.90;;;;;;5029059;28;20474;-37
2022/10/02 07:46:53;;;;;;;13.83;5.83;;;14.60;99.90;;;;;;5029731;28;20474;-38
2022/10/02 07:49:31;;;;;;;15.97;7.87;;;14.60;99.90;;;;;;5030838;28;20225;-38
2022/10/02 07:52:10;;;;;;;14.33;7.40;;;14.60;99.90;;;;;;5030398;28;20448;-38
2022/10/02 07:54:42;;;;;;;15.40;6.27;;;14.70;99.90;;;;;;5027974;28;20441;-37
2022/10/02 07:57:26;;;;;;;10.47;5.30;;;14.70;99.90;;;;;;5033522;28;20516;-37
2022/10/02 08:00:01;;;;;;;11.97;6.70;;;14.70;99.90;;;;;;5033690;28;20528;-38
2022/10/02 08:02:38;;;;;;;13.93;5.90;;;14.70;99.90;;;;;;5033097;28;20428;-37
2022/10/02 08:05:16;;;;;;;9.73;5.30;;;14.80;99.90;;;;;;5031868;28;20444;-41
2022/10/02 08:07:44;;;;;;;9.07;4.50;;;14.70;99.90;;;;;;5031885;28;20425;-37
2022/10/02 08:10:13;;;;;;;14.63;5.83;;;14.70;99.90;;;;;;5032590;28;20453;-38
2022/10/02 08:12:40;;;;;;;11.10;6.03;;;14.70;99.90;;;;;;5032380;28;20448;-38
2022/10/02 08:15:14;;;;;;;12.47;5.77;;;14.70;99.90;;;;;;5031840;28;20419;-38
2022/10/02 08:17:51;;;;;;;11.63;5.30;;;14.70;99.90;;;;;;5033147;28;20464;-38
2022/10/02 08:20:26;;;;;;;8.70;5.33;;;14.70;99.90;;;;;;5041123;28;20829;-38
2022/10/02 08:23:10;;;;;;;8.77;6.50;;;14.70;99.90;;;;;;5035899;28;20938;-38
2022/10/02 08:25:42;;;;;;;8.27;5.70;;;14.70;99.90;;;;;;5033192;28;20451;-37
2022/10/02 08:28:24;;;;;;;11.83;6.70;;;14.60;99.90;;;;;;5033074;28;20439;-38
2022/10/02 08:30:50;;;;;;;12.90;6.97;;;14.60;99.90;;;;;;5033052;28;20797;-38
2022/10/02 08:33:21;;;;;;;11.87;6.13;;;14.70;99.90;;;;;;5032183;28;20932;-38
2022/10/02 08:36:23;;;;;;;17.00;6.83;;;14.70;99.90;;;;;;5032599;28;21064;-38
2022/10/02 08:38:58;;;;;;;9.50;6.50;;;14.80;99.90;;;;;;5032739;28;20482;-38
2022/10/02 08:41:41;;;;;;;11.23;6.67;;;14.80;99.90;;;;;;5032895;28;20772;-37
2022/10/02 08:44:48;;;;;;;13.40;6.93;;;15.00;99.90;;;;;;5031896;28;20500;-37
2022/10/02 08:47:57;;;;;;;14.73;7.67;;;15.10;99.90;;;;;;5032657;28;21126;-38
2022/10/02 08:50:44;;;;;;;17.50;7.73;;;15.20;99.90;;;;;;5032458;28;20425;-38
2022/10/02 08:53:25;;;;;;;11.07;6.93;;;15.30;99.90;;;;;;5031918;28;20796;-40
2022/10/02 08:56:10;;;;;;;14.43;8.30;;;15.40;99.90;;;;;;5031721;28;20455;-38
2022/10/02 08:58:51;;;;;;;14.00;8.67;;;15.40;99.90;;;;;;5029760;28;20441;-37
2022/10/02 09:02:04;;;;;;;8.33;6.73;;;15.40;99.90;;;;;;5032502;28;20946;-37
2022/10/02 09:05:08;;;;;;;12.10;6.60;;;15.50;99.90;;;;;;5024404;28;20449;-38
2022/10/02 09:08:06;;;;;;;11.83;8.30;;;15.60;99.90;;;;;;5022516;28;20417;-37
2022/10/02 09:11:12;;;;;;;17.67;7.90;;;15.60;99.90;;;;;;5032425;28;20440;-37
2022/10/02 09:14:12;;;;;;;12.10;7.77;;;15.70;99.90;;;;;;5018502;28;20483;-38
2022/10/02 09:16:55;;;;;;;14.67;8.70;;;15.70;99.90;;;;;;5032135;28;20791;-38
2022/10/02 09:19:48;;;;;;;11.33;7.40;;;15.70;99.90;;;;;;5031804;28;20421;-37
2022/10/02 09:23:01;;;;;;;9.80;7.33;;;15.70;99.90;;;;;;5041295;28;20424;-37
2022/10/02 09:25:36;;;;;;;12.40;8.10;;;15.80;99.90;;;;;;5031573;28;20461;-38
2022/10/02 09:28:33;;;;;;;14.50;8.53;;;15.70;99.90;;;;;;5031942;28;20423;-37
2022/10/02 09:31:29;;;;;;;13.30;8.50;;;15.70;99.90;;;;;;5031847;28;20441;-38
2022/10/02 09:34:34;;;;;;;17.20;8.30;;;15.70;99.90;;;;;;5030730;28;20770;-38
2022/10/02 09:37:35;;;;;;;15.90;9.00;;;15.60;99.90;;;;;;5031871;28;20421;-38
2022/10/02 09:40:04;;;;;;;9.83;7.60;;;15.60;99.90;;;;;;5028785;28;20749;-37
2022/10/02 09:42:57;;;;;;;15.13;9.37;;;15.70;99.90;;;;;;5018158;28;20444;-38
2022/10/02 09:45:47;;;;;;;12.37;8.23;;;15.60;99.90;;;;;;5031695;28;20838;-37
2022/10/02 09:48:22;;;;;;;15.23;8.50;;;15.60;99.90;;;;;;5031770;28;20432;-37
2022/10/02 09:51:25;;;;;;;11.27;8.97;;;15.60;99.90;;;;;;5031135;28;21098;-37
2022/10/02 09:53:50;;;;;;;12.07;8.57;;;15.50;99.90;;;;;;5029928;28;20926;-38
2022/10/02 09:56:38;;;;;;;10.97;8.17;;;15.50;99.90;;;;;;5029938;28;20434;-37
2022/10/02 09:59:21;;;;;;;14.33;8.50;;;15.30;99.90;;;;;;5030989;28;20697;-37
2022/10/02 10:02:08;;;;;;;12.57;7.73;;;15.40;99.90;;;;;;5031363;28;20413;-39
2022/10/02 10:05:07;;;;;;;14.10;8.50;;;15.40;99.90;;;;;;5030526;28;20439;-38
2022/10/02 10:07:41;;;;;;;9.90;8.37;;;15.40;99.90;;;;;;5021186;28;20457;-37
2022/10/02 10:10:44;;;;;;;12.13;8.47;;;15.40;99.90;;;;;;5030890;28;20423;-38
2022/10/02 10:13:52;;;;;;;10.33;7.90;;;15.30;99.90;;;;;;5030278;28;20460;-37
2022/10/02 10:16:51;;;;;;;15.50;10.43;;;15.30;99.90;;;;;;5030154;28;20429;-37
2022/10/02 10:19:27;;;;;;;14.27;8.13;;;15.40;99.90;;;;;;5030857;28;20508;-38
2022/10/02 10:22:03;;;;;;;10.97;8.10;;;15.60;99.90;;;;;;5019641;28;20473;-38
2022/10/02 10:24:57;;;;;;;11.53;7.87;;;15.70;99.90;;;;;;5030470;28;20416;-38
2022/10/02 10:27:42;;;;;;;13.80;8.00;;;15.90;99.90;;;;;;5030880;28;20417;-38
2022/10/02 10:30:39;;;;;;;10.17;7.90;;;16.00;99.90;;;;;;5030559;28;20421;-37
2022/10/02 10:33:33;;;;;;;9.67;7.90;;;16.10;99.90;;;;;;5027904;28;20997;-37
2022/10/02 10:38:31;;;;;;;12.73;7.23;;;16.10;99.90;;;;;;5030567;28;20898;-37
2022/10/02 10:39:28;;;;;;;13.10;7.30;;;16.10;99.90;;;;;;5030388;28;20524;-39
2022/10/02 10:42:23;;;;;;;13.50;6.73;;;16.20;99.90;;;;;;5030568;28;20425;-38
2022/10/02 10:45:21;;;;;;;9.23;6.30;;;16.20;99.90;;;;;;5028666;28;20424;-37
2022/10/02 10:48:02;;;;;;;9.83;6.70;;;16.20;99.90;;;;;;5030515;28;20417;-37
2022/10/02 10:50:41;;;;;;;8.30;5.40;;;16.30;99.90;;;;;;5030330;28;20771;-37
2022/10/02 10:53:12;;;;;;;8.97;6.47;;;16.30;99.90;;;;;;5028102;28;20547;-37
2022/10/02 10:56:08;;;;;;;9.13;5.90;;;16.30;99.90;;;;;;5029426;28;20413;-37
2022/10/02 10:58:57;;;;;;;9.67;6.43;;;16.40;99.90;;;;;;5030334;28;20500;-37
2022/10/02 11:01:37;;;;;;;8.73;6.60;;;16.50;99.90;;;;;;5030065;28;20491;-38
2022/10/02 11:04:29;;;;;;;11.03;5.97;;;16.60;99.90;;;;;;5029649;28;20456;-38
2022/10/02 11:07:33;;;;;;;10.67;6.80;;;16.70;99.90;;;;;;5029873;28;20432;-38
2022/10/02 11:10:23;;;;;;;8.77;5.63;;;16.90;99.90;;;;;;5029993;28;20495;-38
2022/10/02 11:13:26;;;;;;;9.60;4.70;;;17.00;99.90;;;;;;5029269;28;20461;-39
2022/10/02 11:16:27;;;;;;;9.00;5.30;;;17.20;99.90;;;;;;5028953;28;20468;-37
2022/10/02 11:19:09;;;;;;;7.93;4.40;;;17.20;99.90;;;;;;5030058;28;20436;-38
2022/10/02 11:21:51;;;;;;;8.43;4.80;;;17.10;99.90;;;;;;5042410;28;20421;-38
2022/10/02 11:24:26;;;;;;;8.37;6.23;;;16.90;99.90;;;;;;5029212;28;20413;-39
2022/10/02 11:27:16;;;;;;;7.77;5.10;;;16.90;99.90;;;;;;5029805;28;20459;-38
2022/10/02 11:29:48;;;;;;;7.63;4.77;;;16.80;99.90;;;;;;5029921;28;20421;-40
2022/10/02 11:33:01;;;;;;;14.83;4.13;;;16.80;99.90;;;;;;5029597;28;20425;-38
2022/10/02 11:35:46;;;;;;;5.00;3.83;;;16.90;99.90;;;;;;5028959;28;20482;-39
2022/10/02 11:38:29;;;;;;;7.63;3.63;;;16.80;99.90;;;;;;5029651;28;21105;-38
2022/10/02 11:41:10;;;;;;;7.57;4.20;;;16.80;99.90;;;;;;5029649;28;20421;-38
2022/10/02 11:44:01;;;;;;;4.90;3.53;;;16.90;99.90;;;;;;5029170;28;20474;-38
2022/10/02 11:46:55;;;;;;;6.17;3.63;;;16.90;99.90;;;;;;5029891;28;20421;-38
2022/10/02 11:49:38;;;;;;;4.77;3.10;;;16.90;99.90;;;;;;5029013;28;20909;-38
2022/10/02 11:52:13;;;;;;;10.17;3.73;;;16.90;99.90;;;;;;5028272;28;20425;-38
2022/10/02 11:54:43;;;;;;;6.27;3.33;;;16.90;99.90;;;;;;5027454;28;20417;-38
2022/10/02 11:57:31;;;;;;;6.23;2.90;;;16.90;99.90;;;;;;5029578;28;20947;-38
2022/10/02 12:00:28;;;;;;;6.47;2.90;;;16.80;99.90;;;;;;5029249;28;20492;-37
2022/10/02 12:03:02;;;;;;;8.23;2.90;;;16.80;99.90;;;;;;5028991;28;20448;-38
2022/10/02 12:05:54;;;;;;;6.93;2.90;;;16.80;99.90;;;;;;5029403;28;20429;-38
2022/10/02 12:08:29;;;;;;;5.80;3.37;;;17.00;99.90;;;;;;5029114;28;20429;-38
2022/10/02 12:11:15;;;;;;;7.30;2.60;;;17.10;99.90;;;;;;5029535;28;20490;-39
2022/10/02 12:14:00;;;;;;;6.37;2.83;;;17.30;99.90;;;;;;5016030;28;20457;-37
2022/10/02 12:16:44;;;;;;;5.40;2.93;;;17.50;99.90;;;;;;5027845;28;20459;-38
2022/10/02 12:19:35;;;;;;;7.70;3.17;;;17.60;99.90;;;;;;5029591;28;20416;-38
2022/10/02 12:27:43;;;;;;;7.20;3.13;;;17.70;99.90;;;;;;5029335;28;20441;-38
2022/10/02 12:30:17;;;;;;;6.33;2.77;;;17.80;99.90;;;;;;5029280;28;20401;-38
2022/10/02 12:32:54;;;;;;;6.87;2.90;;;17.70;99.90;;;;;;5029324;28;20514;-38
2022/10/02 12:35:41;;;;;;;7.43;2.70;;;17.70;99.90;;;;;;5032568;28;20425;-38
2022/10/02 12:38:19;;;;;;;6.43;3.00;;;17.60;99.90;;;;;;5033069;28;20958;-38
2022/10/02 12:40:57;;;;;;;7.03;2.80;;;17.50;99.90;;;;;;5032791;28;20753;-38
2022/10/02 12:43:42;;;;;;;5.87;3.00;;;17.40;99.90;;;;;;5032025;28;20501;-38
2022/10/02 12:46:28;;;;;;;8.13;3.33;;;17.30;99.90;;;;;;5032529;28;20421;-37
2022/10/02 12:49:00;;;;;;;8.70;2.47;;;17.30;99.90;;;;;;5032830;28;20776;-37
2022/10/02 12:51:45;;;;;;;6.17;2.33;;;17.20;99.90;;;;;;5032530;28;20469;-37
2022/10/02 12:54:34;;;;;;;6.27;3.10;;;17.10;99.90;;;;;;5030835;28;20475;-38
2022/10/02 13:00:21;;;;;;;7.57;2.70;;;17.10;99.90;;;;;;5031542;28;20433;-37
2022/10/02 13:03:28;;;;;;;3.80;2.83;;;17.10;99.90;;;;;;5031751;28;20487;-38
2022/10/02 13:06:45;;;;;;;5.37;3.07;;;17.10;99.90;;;;;;5031986;28;20453;-38
2022/10/02 13:09:43;;;;;;;4.97;2.50;;;17.20;99.90;;;;;;5020752;28;20444;-39
2022/10/02 13:12:33;;;;;;;7.10;2.63;;;17.20;99.90;;;;;;5030843;28;20428;-38
2022/10/02 13:15:22;;;;;;;9.93;2.90;;;17.20;99.90;;;;;;5031554;28;20931;-38
2022/10/02 13:18:15;;;;;;;6.77;2.57;;;17.20;99.90;;;;;;5032072;28;20440;-38
2022/10/02 13:21:10;;;;;;;7.70;2.40;;;17.20;99.90;;;;;;5043066;28;20511;-38
2022/10/02 13:24:01;;;;;;;6.23;2.10;;;17.10;99.90;;;;;;5020030;28;20429;-38
2022/10/02 13:26:44;;;;;;;4.50;1.77;;;17.10;99.90;;;;;;5031733;28;20425;-38
2022/10/02 13:29:51;;;;;;;4.63;1.93;;;17.00;99.90;;;;;;5031973;28;20425;-38
2022/10/02 13:32:19;;;;;;;4.93;2.33;;;17.00;99.90;;;;;;5031590;28;20441;-38
2022/10/02 13:35:09;;;;;;;7.00;2.77;;;16.90;99.90;;;;;;5031514;28;20823;-38
2022/10/02 13:38:02;;;;;;;5.60;2.00;;;16.90;99.90;;;;;;5031635;28;20982;-38
2022/10/02 13:40:54;;;;;;;6.90;2.60;;;16.90;99.90;;;;;;5031610;28;20425;-38
2022/10/02 13:43:27;;;;;;;6.00;2.33;;;16.80;99.90;;;;;;5031133;28;20455;-38
2022/10/02 13:46:13;;;;;;;7.90;2.93;;;16.90;99.90;;;;;;5029941;28;20483;-38
2022/10/02 13:49:36;;;;;;;6.90;2.80;;;16.90;99.90;;;;;;5031633;28;20421;-38
2022/10/02 13:52:29;;;;;;;4.00;1.97;;;16.90;99.90;;;;;;5028395;28;20439;-37
2022/10/02 13:55:14;;;;;;;10.27;2.57;;;16.90;99.90;;;;;;5030340;28;20810;-39
2022/10/02 13:57:47;;;;;;;7.40;2.43;;;16.90;99.90;;;;;;5031145;28;20496;-38
2022/10/02 14:00:21;;;;;;;7.53;2.07;;;17.00;99.90;;;;;;5031279;28;20512;-38
2022/10/02 14:02:50;;;;;;;8.83;2.70;;;17.00;99.90;;;;;;5030331;28;20480;-38
2022/10/02 14:05:32;;;;;;;6.43;1.90;;;17.00;99.90;;;;;;5031008;28;20486;-37
2022/10/02 14:08:16;;;;;;;5.87;2.13;;;16.90;99.90;;;;;;5031151;28;20500;-38
2022/10/02 14:11:14;;;;;;;7.73;3.80;;;16.90;99.90;;;;;;5031260;28;20535;-38